Fort Wayne, IN (46802)

10:03 AM EST on December 18, 2014 (GMT -0500)
Hillegas Road, Ft.Wayne, IN | Change Station
CLOSE
Current Station
Personal Weather Station
Location: Fort Wayne, IN
Elevation: 823 ft
Nearby Weather Stations

Elev 823 ft 41.10 °N, 85.19 °W | Updated 45 seconds ago

Overcast
Overcast
27.0 °F
Feels Like 22 °F
N
4.7
Wind Variable Wind from West

Today
High -- | Low -- °F
--% Chance of Precip.
Yesterday
High -- | Low -- °F
Precip. -- in
8:00 AM 5:13 PM
Waning Crescent, 14% visible
Pressure 30.31 in
Visibility 8.0 miles
Clouds Overcast 1700 ft
Windchill 22 °F
Dew Point 23 °F
Humidity 85%
Rainfall 0.00 in
Snow Depth Not available.
UV 0 out of 12
Pollen .10 out of 12
Air Quality Not available.
Flu Activity Not available.
METAR KFWA 181454Z 24005KT 8SM -SN OVC017 M03/M06 A3027 RMK AO2 SNB50 SLP263 P0000 60000 T10281061 51011

More Conditions Fewer Conditions

Pressure 30.31 in
Visibility 8.0 miles
Clouds Overcast 1700 ft
Windchill 22 °F
Dew Point 23 °F
Humidity 85%
Rainfall 0.00 in
Snow Depth Not available.
UV 0 out of 12
Pollen .10 out of 12
Air Quality Not available.
Flu Activity Not available.
METAR KFWA 181454Z 24005KT 8SM -SN OVC017 M03/M06 A3027 RMK AO2 SNB50 SLP263 P0000 60000 T10281061 51011

More Conditions Fewer Conditions

10-Day Weather Forecast

Almanac

Astronomy

Dec. 18, 2014 Rise Set
Actual Time
Civil Twilight
Nautical Twilight
Astronomical Twilight
Moon
Length of Visible Light
Length of Day
Tomorrow will be .
, % of the Moon is Illuminated

Today's Extremes

State Highs State Lows

Community

WunderPhotos

Upload Photos

1,778,937 photos uploaded!

WunderBlogs® & News

Nearby

Air Quality

  Air Quality AQ Index Pollutant
Not available.

Snow Depth

Station Depth Elevation

Earthquake Activity

City Distance Mag. Time & Date
Minimum magnitude displayed is 2.5.

Coastal Water Temperatures

Place Temperature

Nearby Weather Stations